Terminal Aerodrome Forecast
Issued by NWS Charleston, WV

Current Version | Previous Version | Graphics & Text | Print | Product List | Glossary On
Versions: 1 2 3 4 5 6 7 8 9 10 11 12 13 14 15 16 17 18 19 20 21
000
FTUS41 KRLX 101100
TAFPKB
TAF
KPKB 101137Z 1012/1112 00000KT 3SM BR BKN060 BKN100
     FM101230 34004KT P6SM BKN060
     FM101700 35005KT P6SM SCT050
     FM110100 00000KT P6SM FEW080
     FM111000 00000KT 6SM BR SCT250=

USA.gov is the U.S. government's official web portal to all federal, state and local government web resources and services.